Odiham, United Kingdom
Current Conditions -  °F | °C
As of 6:50 PM on Tuesday 27 Jan 2015 (Local Time) from EGVO Reporting Station
Broken Clouds Broken Clouds  
Wind Chill: 37°   Ceiling: 2500
Heat Index: 43°   Visibility: 6mi
Dew Point: 36°   Wind: 10mph
Humidity: 76%   Direction: 260°W
Pressure: 30.24"   Gusts: NA
Location:  51.25°N, 0.94°W
Report Text: EGVO 271850Z 26009KT 9999 SCT022 BKN025 06/02 Q1024 WHT TEMPO FEW022 BKN025 BLU
Loading
Personal Weather Stations






























Interactive Weather Map New forecast layout! Learn more

10-Day Weather Forecast

Advertisements
Track Severe Weather on mobile